createdAt,value
2018-02-18T00:00:33.627Z,1021.00
2018-02-18T00:01:33.638Z,1020.95
2018-02-18T00:02:33.602Z,1020.96
2018-02-18T00:03:54.733Z,1020.98
2018-02-18T00:04:33.628Z,1021.01
2018-02-18T00:05:33.602Z,1021.02
2018-02-18T00:06:33.590Z,1021.03
2018-02-18T00:07:33.597Z,1021.07
2018-02-18T00:08:33.587Z,1021.06
2018-02-18T00:09:54.631Z,1021.06
2018-02-18T00:10:33.639Z,1021.06
2018-02-18T00:11:33.598Z,1021.09
2018-02-18T00:12:33.590Z,1021.06
2018-02-18T00:13:33.668Z,1021.08
2018-02-18T00:14:33.571Z,1021.09
2018-02-18T00:15:54.593Z,1021.07
2018-02-18T00:16:33.574Z,1021.07
2018-02-18T00:17:33.576Z,1021.07
2018-02-18T00:18:33.562Z,1021.06
2018-02-18T00:19:33.728Z,1021.06
2018-02-18T00:20:33.553Z,1021.05
2018-02-18T00:21:55.177Z,1021.08
2018-02-18T00:22:33.561Z,1021.01
2018-02-18T00:23:33.541Z,1021.03
2018-02-18T00:24:33.570Z,1021.04
2018-02-18T00:25:33.547Z,1020.99
2018-02-18T00:26:33.529Z,1021.05
2018-02-18T00:27:54.550Z,1021.05
2018-02-18T00:28:33.544Z,1021.03
2018-02-18T00:29:33.516Z,1021.03
2018-02-18T00:30:33.527Z,1021.01
2018-02-18T00:31:33.516Z,1020.99
2018-02-18T00:32:33.520Z,1020.98
2018-02-18T00:33:54.515Z,1020.99
2018-02-18T00:34:33.572Z,1020.94
2018-02-18T00:35:33.502Z,1020.94
2018-02-18T00:36:33.498Z,1020.94
2018-02-18T00:37:33.510Z,1020.96
2018-02-18T00:38:33.891Z,1020.97
2018-02-18T00:39:54.517Z,1020.97
2018-02-18T00:40:34.107Z,1020.98
2018-02-18T00:41:33.498Z,1020.98
2018-02-18T00:42:33.485Z,1020.97
2018-02-18T00:43:33.726Z,1020.97
2018-02-18T00:44:33.494Z,1020.97
2018-02-18T00:45:54.480Z,1020.95
2018-02-18T00:46:34.158Z,1021.02
2018-02-18T00:47:33.476Z,1021.00
2018-02-18T00:48:34.173Z,1020.99
2018-02-18T00:49:33.458Z,1021.01
2018-02-18T00:50:33.467Z,1021.03
2018-02-18T00:51:54.468Z,1021.07
2018-02-18T00:52:34.346Z,1021.05
2018-02-18T00:53:33.464Z,1021.06
2018-02-18T00:54:33.466Z,1021.09
2018-02-18T00:55:33.434Z,1021.04
2018-02-18T00:56:33.438Z,1021.07
2018-02-18T00:57:54.459Z,1021.06
2018-02-18T00:58:33.437Z,1021.06
2018-02-18T00:59:33.443Z,1021.07
2018-02-18T01:00:33.434Z,1021.09
2018-02-18T01:01:33.439Z,1021.12
2018-02-18T01:02:33.433Z,1021.14
2018-02-18T01:03:54.457Z,1021.08
2018-02-18T01:04:33.408Z,1021.13
2018-02-18T01:05:33.428Z,1021.10
2018-02-18T01:06:33.458Z,1021.09
2018-02-18T01:07:33.397Z,1021.07
2018-02-18T01:08:33.393Z,1021.07
2018-02-18T01:09:54.402Z,1021.07
2018-02-18T01:10:33.395Z,1021.07
2018-02-18T01:11:33.383Z,1021.08
2018-02-18T01:12:33.420Z,1021.07
2018-02-18T01:13:33.394Z,1021.13
2018-02-18T01:14:33.851Z,1021.10
2018-02-18T01:15:54.378Z,1021.13
2018-02-18T01:16:33.702Z,1021.14
2018-02-18T01:17:33.479Z,1021.11
2018-02-18T01:18:33.421Z,1021.11
2018-02-18T01:19:33.361Z,1021.11
2018-02-18T01:20:34.199Z,1021.15
2018-02-18T01:21:54.380Z,1021.10
2018-02-18T01:22:33.350Z,1021.12
2018-02-18T01:23:33.354Z,1021.12
2018-02-18T01:24:33.347Z,1021.15
2018-02-18T01:25:33.363Z,1021.17
2018-02-18T01:26:33.342Z,1021.17
2018-02-18T01:27:54.982Z,1021.21
2018-02-18T01:28:33.350Z,1021.23
2018-02-18T01:29:33.348Z,1021.23
2018-02-18T01:30:33.452Z,1021.17
2018-02-18T01:31:33.461Z,1021.20
2018-02-18T01:32:33.324Z,1021.18
2018-02-18T01:33:54.319Z,1021.20
2018-02-18T01:34:33.315Z,1021.22
2018-02-18T01:35:33.328Z,1021.22
2018-02-18T01:36:33.384Z,1021.19
2018-02-18T01:37:33.326Z,1021.22
2018-02-18T01:38:33.312Z,1021.21
2018-02-18T01:39:54.333Z,1021.25
2018-02-18T01:40:33.315Z,1021.27
2018-02-18T01:41:33.324Z,1021.25
2018-02-18T01:42:33.292Z,1021.28
2018-02-18T01:43:33.285Z,1021.28
2018-02-18T01:44:33.289Z,1021.27
2018-02-18T01:45:54.278Z,1021.25
2018-02-18T01:46:33.272Z,1021.27
2018-02-18T01:47:33.293Z,1021.32
2018-02-18T01:48:33.313Z,1021.29
2018-02-18T01:49:33.711Z,1021.31
2018-02-18T01:50:33.292Z,1021.29
2018-02-18T01:51:54.475Z,1021.30
2018-02-18T01:52:33.254Z,1021.28
2018-02-18T01:53:33.269Z,1021.27
2018-02-18T01:54:33.271Z,1021.29
2018-02-18T01:55:33.247Z,1021.24
2018-02-18T01:56:33.244Z,1021.28
2018-02-18T01:57:54.293Z,1021.25
2018-02-18T01:58:33.234Z,1021.26
2018-02-18T01:59:33.853Z,1021.25
2018-02-18T02:00:33.235Z,1021.29
2018-02-18T02:01:33.261Z,1021.28
2018-02-18T02:02:33.268Z,1021.27
2018-02-18T02:03:54.220Z,1021.30
2018-02-18T02:04:33.219Z,1021.28
2018-02-18T02:05:33.373Z,1021.28
2018-02-18T02:06:33.222Z,1021.29
2018-02-18T02:07:33.534Z,1021.27
2018-02-18T02:08:33.201Z,1021.29
2018-02-18T02:09:54.217Z,1021.26
2018-02-18T02:10:33.194Z,1021.27
2018-02-18T02:11:33.217Z,1021.26
2018-02-18T02:12:33.751Z,1021.24
2018-02-18T02:13:33.182Z,1021.25
2018-02-18T02:14:33.187Z,1021.24
2018-02-18T02:15:54.261Z,1021.25
2018-02-18T02:16:33.178Z,1021.29
2018-02-18T02:17:33.175Z,1021.29
2018-02-18T02:18:33.173Z,1021.30
2018-02-18T02:19:33.914Z,1021.30
2018-02-18T02:20:33.163Z,1021.29
2018-02-18T02:21:54.170Z,1021.29
2018-02-18T02:22:33.160Z,1021.29
2018-02-18T02:23:34.071Z,1021.29
2018-02-18T02:24:33.147Z,1021.26
2018-02-18T02:25:33.268Z,1021.30
2018-02-18T02:26:33.149Z,1021.27
2018-02-18T02:27:55.186Z,1021.30
2018-02-18T02:28:33.130Z,1021.27
2018-02-18T02:29:33.390Z,1021.26
2018-02-18T02:30:33.127Z,1021.24
2018-02-18T02:31:33.117Z,1021.27
2018-02-18T02:32:34.027Z,1021.23
2018-02-18T02:33:54.107Z,1021.20
2018-02-18T02:34:33.839Z,1021.18
2018-02-18T02:35:33.101Z,1021.21
2018-02-18T02:36:33.771Z,1021.20
2018-02-18T02:37:33.671Z,1021.17
2018-02-18T02:38:34.067Z,1021.17
2018-02-18T02:39:54.091Z,1021.15
2018-02-18T02:40:33.390Z,1021.14
2018-02-18T02:41:33.093Z,1021.20
2018-02-18T02:42:33.484Z,1021.14
2018-02-18T02:43:33.079Z,1021.17
2018-02-18T02:44:33.082Z,1021.21
2018-02-18T02:45:54.070Z,1021.22
2018-02-18T02:46:33.070Z,1021.18
2018-02-18T02:47:33.072Z,1021.16
2018-02-18T02:48:33.102Z,1021.19
2018-02-18T02:49:33.642Z,1021.19
2018-02-18T02:50:33.063Z,1021.11
2018-02-18T02:51:55.251Z,1021.14
2018-02-18T02:52:33.053Z,1021.14
2018-02-18T02:53:33.049Z,1021.12
2018-02-18T02:54:33.042Z,1021.08
2018-02-18T02:55:33.047Z,1021.07
2018-02-18T02:56:33.034Z,1020.99
2018-02-18T02:57:54.298Z,1021.00
2018-02-18T02:58:33.042Z,1021.01
2018-02-18T02:59:33.501Z,1021.00
2018-02-18T03:00:33.024Z,1021.04
2018-02-18T03:01:33.104Z,1021.02
2018-02-18T03:02:33.619Z,1021.01
2018-02-18T03:03:54.254Z,1021.02
2018-02-18T03:04:34.021Z,1021.06
2018-02-18T03:05:33.007Z,1021.02
2018-02-18T03:06:33.855Z,1021.03
2018-02-18T03:07:33.011Z,1021.03
2018-02-18T03:08:33.258Z,1021.04
2018-02-18T03:09:53.989Z,1021.03
2018-02-18T03:10:33.789Z,1021.02
2018-02-18T03:11:32.988Z,1021.04
2018-02-18T03:12:33.101Z,1021.01
2018-02-18T03:13:32.975Z,1021.03
2018-02-18T03:14:32.985Z,1021.02
2018-02-18T03:15:53.985Z,1021.02
2018-02-18T03:16:33.139Z,1021.02
2018-02-18T03:17:33.933Z,1021.03
2018-02-18T03:18:33.023Z,1021.03
2018-02-18T03:19:32.963Z,1021.04
2018-02-18T03:20:33.249Z,1021.00
2018-02-18T03:21:53.955Z,1021.02
2018-02-18T03:22:32.955Z,1021.05
2018-02-18T03:23:32.938Z,1021.03
2018-02-18T03:24:33.387Z,1021.06
2018-02-18T03:25:32.940Z,1021.00
2018-02-18T03:26:32.947Z,1021.04
2018-02-18T03:27:53.950Z,1020.99
2018-02-18T03:28:33.260Z,1020.97
2018-02-18T03:29:33.326Z,1020.97
2018-02-18T03:30:33.175Z,1021.01
2018-02-18T03:31:32.906Z,1020.98
2018-02-18T03:32:32.909Z,1020.96
2018-02-18T03:33:53.912Z,1020.96
2018-02-18T03:34:32.912Z,1020.97
2018-02-18T03:35:32.906Z,1020.95
2018-02-18T03:36:33.256Z,1020.95
2018-02-18T03:37:32.911Z,1020.94
2018-02-18T03:38:33.780Z,1020.91
2018-02-18T03:39:53.941Z,1020.94
2018-02-18T03:40:32.873Z,1020.95
2018-02-18T03:41:32.883Z,1020.93
2018-02-18T03:42:33.197Z,1020.96
2018-02-18T03:43:32.857Z,1020.92
2018-02-18T03:44:33.048Z,1020.89
2018-02-18T03:45:53.867Z,1020.90
2018-02-18T03:46:33.593Z,1020.93
2018-02-18T03:47:32.868Z,1020.95
2018-02-18T03:48:33.142Z,1020.91
2018-02-18T03:49:32.853Z,1020.91
2018-02-18T03:50:33.153Z,1020.92
2018-02-18T03:51:53.861Z,1021.00
2018-02-18T03:52:33.177Z,1020.96
2018-02-18T03:53:32.841Z,1021.01
2018-02-18T03:54:32.836Z,1020.99
2018-02-18T03:55:33.713Z,1020.98
2018-02-18T03:56:33.294Z,1021.02
2018-02-18T03:57:54.511Z,1021.01
2018-02-18T03:58:32.825Z,1021.05
2018-02-18T03:59:33.123Z,1021.03
2018-02-18T04:00:32.818Z,1021.03
2018-02-18T04:01:34.212Z,1021.03
2018-02-18T04:02:32.808Z,1021.01
2018-02-18T04:03:54.171Z,1020.99
2018-02-18T04:04:32.793Z,1021.00
2018-02-18T04:05:33.067Z,1021.04
2018-02-18T04:06:32.787Z,1021.04
2018-02-18T04:07:32.783Z,1021.00
2018-02-18T04:08:32.770Z,1021.02
2018-02-18T04:09:54.460Z,1021.02
2018-02-18T04:10:32.757Z,1020.96
2018-02-18T04:11:32.774Z,1021.02
2018-02-18T04:12:34.307Z,1020.99
2018-02-18T04:13:32.786Z,1021.02
2018-02-18T04:14:32.757Z,1020.98
2018-02-18T04:15:53.755Z,1020.98
2018-02-18T04:16:33.850Z,1020.96
2018-02-18T04:17:32.879Z,1020.97
2018-02-18T04:18:32.806Z,1020.97
2018-02-18T04:19:32.733Z,1020.95
2018-02-18T04:20:32.891Z,1020.96
2018-02-18T04:21:53.724Z,1020.98
2018-02-18T04:22:33.075Z,1020.99
2018-02-18T04:23:32.728Z,1021.02
2018-02-18T04:24:33.164Z,1021.00
2018-02-18T04:25:32.873Z,1021.00
2018-02-18T04:26:33.257Z,1021.03
2018-02-18T04:27:53.716Z,1021.01
2018-02-18T04:28:32.700Z,1021.02
2018-02-18T04:29:33.753Z,1021.01
2018-02-18T04:30:32.691Z,1020.99
2018-02-18T04:31:33.249Z,1021.01
2018-02-18T04:32:32.675Z,1020.96
2018-02-18T04:33:53.706Z,1021.00
2018-02-18T04:34:32.679Z,1021.01
2018-02-18T04:35:32.769Z,1021.00
2018-02-18T04:36:32.666Z,1021.01
2018-02-18T04:37:33.600Z,1020.98
2018-02-18T04:38:32.645Z,1021.00
2018-02-18T04:39:53.807Z,1020.98
2018-02-18T04:40:32.657Z,1021.00
2018-02-18T04:41:32.650Z,1021.01
2018-02-18T04:42:32.640Z,1021.02
2018-02-18T04:43:32.641Z,1021.02
2018-02-18T04:44:32.687Z,1021.03
2018-02-18T04:45:53.640Z,1021.04
2018-02-18T04:46:33.272Z,1021.01
2018-02-18T04:47:32.628Z,1021.02
2018-02-18T04:48:32.630Z,1021.03
2018-02-18T04:49:32.629Z,1021.02
2018-02-18T04:50:33.490Z,1021.01
2018-02-18T04:51:53.613Z,1021.06
2018-02-18T04:52:33.010Z,1021.07
2018-02-18T04:53:32.607Z,1021.07
2018-02-18T04:54:32.979Z,1021.06
2018-02-18T04:55:32.607Z,1021.04
2018-02-18T04:56:32.600Z,1021.06
2018-02-18T04:57:53.598Z,1021.04
2018-02-18T04:58:32.863Z,1021.00
2018-02-18T04:59:33.180Z,1021.04
2018-02-18T05:00:32.580Z,1021.02
2018-02-18T05:01:32.580Z,1021.06
2018-02-18T05:02:32.547Z,1021.04
2018-02-18T05:03:54.754Z,1021.04
2018-02-18T05:04:32.567Z,1021.09
2018-02-18T05:05:32.964Z,1021.12
2018-02-18T05:06:32.555Z,1021.08
2018-02-18T05:07:33.616Z,1021.11
2018-02-18T05:08:32.541Z,1021.11
2018-02-18T05:09:53.872Z,1021.11
2018-02-18T05:10:32.540Z,1021.11
2018-02-18T05:11:32.743Z,1021.16
2018-02-18T05:12:32.527Z,1021.13
2018-02-18T05:13:32.541Z,1021.14
2018-02-18T05:14:32.522Z,1021.13
2018-02-18T05:15:53.743Z,1021.13
2018-02-18T05:16:33.056Z,1021.10
2018-02-18T05:17:32.508Z,1021.11
2018-02-18T05:18:32.632Z,1021.09
2018-02-18T05:19:32.490Z,1021.11
2018-02-18T05:20:32.489Z,1021.08
2018-02-18T05:21:53.500Z,1021.12
2018-02-18T05:22:33.004Z,1021.10
2018-02-18T05:23:33.016Z,1021.14
2018-02-18T05:24:32.801Z,1021.14
2018-02-18T05:25:32.472Z,1021.13
2018-02-18T05:26:32.530Z,1021.16
2018-02-18T05:27:53.470Z,1021.22
2018-02-18T05:28:32.469Z,1021.22
2018-02-18T05:29:32.941Z,1021.23
2018-02-18T05:30:32.455Z,1021.23
2018-02-18T05:31:32.465Z,1021.24
2018-02-18T05:32:32.450Z,1021.25
2018-02-18T05:33:53.454Z,1021.20
2018-02-18T05:34:32.442Z,1021.22
2018-02-18T05:35:32.723Z,1021.19
2018-02-18T05:36:32.431Z,1021.20
2018-02-18T05:37:32.708Z,1021.15
2018-02-18T05:38:32.416Z,1021.14
2018-02-18T05:39:53.419Z,1021.11
2018-02-18T05:40:32.416Z,1021.14
2018-02-18T05:41:32.417Z,1021.15
2018-02-18T05:42:32.404Z,1021.13
2018-02-18T05:43:33.097Z,1021.16
2018-02-18T05:44:32.490Z,1021.16
2018-02-18T05:45:53.418Z,1021.09
2018-02-18T05:46:32.399Z,1021.21
2018-02-18T05:47:32.421Z,1021.18
2018-02-18T05:48:32.396Z,1021.17
2018-02-18T05:49:32.383Z,1021.22
2018-02-18T05:50:32.435Z,1021.20
2018-02-18T05:51:53.395Z,1021.22
2018-02-18T05:52:32.364Z,1021.20
2018-02-18T05:53:32.369Z,1021.22
2018-02-18T05:54:32.373Z,1021.24
2018-02-18T05:55:32.357Z,1021.20
2018-02-18T05:56:32.848Z,1021.22
2018-02-18T05:57:53.527Z,1021.22
2018-02-18T05:58:32.552Z,1021.25
2018-02-18T05:59:32.359Z,1021.26
2018-02-18T06:00:32.349Z,1021.25
2018-02-18T06:01:32.331Z,1021.25
2018-02-18T06:02:32.335Z,1021.24
2018-02-18T06:03:53.673Z,1021.25
2018-02-18T06:04:32.665Z,1021.25
2018-02-18T06:05:32.329Z,1021.22
2018-02-18T06:06:32.319Z,1021.21
2018-02-18T06:07:32.308Z,1021.19
2018-02-18T06:08:32.296Z,1021.20
2018-02-18T06:09:53.305Z,1021.22
2018-02-18T06:10:32.810Z,1021.23
2018-02-18T06:11:32.363Z,1021.18
2018-02-18T06:12:32.377Z,1021.27
2018-02-18T06:13:32.282Z,1021.24
2018-02-18T06:14:32.270Z,1021.21
2018-02-18T06:15:53.280Z,1021.26
2018-02-18T06:16:32.265Z,1021.26
2018-02-18T06:17:32.271Z,1021.30
2018-02-18T06:18:32.260Z,1021.28
2018-02-18T06:19:32.351Z,1021.27
2018-02-18T06:20:32.260Z,1021.30
2018-02-18T06:21:53.263Z,1021.28
2018-02-18T06:22:32.272Z,1021.28
2018-02-18T06:23:32.301Z,1021.31
2018-02-18T06:24:32.235Z,1021.33
2018-02-18T06:25:32.266Z,1021.30
2018-02-18T06:26:32.248Z,1021.25
2018-02-18T06:27:53.242Z,1021.27
2018-02-18T06:28:32.225Z,1021.30
2018-02-18T06:29:32.229Z,1021.26
2018-02-18T06:30:32.288Z,1021.27
2018-02-18T06:31:32.580Z,1021.24
2018-02-18T06:32:32.219Z,1021.23
2018-02-18T06:33:53.219Z,1021.26
2018-02-18T06:34:32.190Z,1021.24
2018-02-18T06:35:32.191Z,1021.22
2018-02-18T06:36:32.822Z,1021.24
2018-02-18T06:37:32.197Z,1021.23
2018-02-18T06:38:32.648Z,1021.23
2018-02-18T06:39:53.206Z,1021.21
2018-02-18T06:40:32.180Z,1021.20
2018-02-18T06:41:32.169Z,1021.25
2018-02-18T06:42:32.173Z,1021.21
2018-02-18T06:43:32.155Z,1021.25
2018-02-18T06:44:32.660Z,1021.26
2018-02-18T06:45:53.187Z,1021.26
2018-02-18T06:46:32.675Z,1021.32
2018-02-18T06:47:32.142Z,1021.29
2018-02-18T06:48:32.149Z,1021.31
2018-02-18T06:49:32.150Z,1021.36
2018-02-18T06:50:32.143Z,1021.30
2018-02-18T06:51:53.573Z,1021.34
2018-02-18T06:52:32.741Z,1021.35
2018-02-18T06:53:32.134Z,1021.39
2018-02-18T06:54:32.146Z,1021.33
2018-02-18T06:55:32.118Z,1021.35
2018-02-18T06:56:32.119Z,1021.38
2018-02-18T06:57:53.136Z,1021.39
2018-02-18T06:58:32.262Z,1021.38
2018-02-18T06:59:33.502Z,1021.41
2018-02-18T07:00:32.106Z,1021.40
2018-02-18T07:01:32.130Z,1021.40
2018-02-18T07:02:32.103Z,1021.39
2018-02-18T07:03:53.092Z,1021.41
2018-02-18T07:04:32.098Z,1021.44
2018-02-18T07:05:32.087Z,1021.42
2018-02-18T07:06:32.459Z,1021.43
2018-02-18T07:07:32.071Z,1021.43
2018-02-18T07:08:32.073Z,1021.43
2018-02-18T07:09:53.071Z,1021.43
2018-02-18T07:10:32.787Z,1021.45
2018-02-18T07:11:32.648Z,1021.46
2018-02-18T07:12:32.691Z,1021.44
2018-02-18T07:13:32.569Z,1021.46
2018-02-18T07:14:32.040Z,1021.42
2018-02-18T07:15:53.041Z,1021.43
2018-02-18T07:16:32.049Z,1021.43
2018-02-18T07:17:32.694Z,1021.41
2018-02-18T07:18:32.279Z,1021.40
2018-02-18T07:19:32.030Z,1021.37
2018-02-18T07:20:32.108Z,1021.38
2018-02-18T07:21:53.016Z,1021.38
2018-02-18T07:22:32.021Z,1021.35
2018-02-18T07:23:32.227Z,1021.37
2018-02-18T07:24:32.145Z,1021.39
2018-02-18T07:25:31.995Z,1021.37
2018-02-18T07:26:32.034Z,1021.41
2018-02-18T07:27:52.992Z,1021.41
2018-02-18T07:28:31.996Z,1021.38
2018-02-18T07:29:31.986Z,1021.40
2018-02-18T07:30:32.063Z,1021.37
2018-02-18T07:31:31.978Z,1021.37
2018-02-18T07:32:32.249Z,1021.37
2018-02-18T07:33:52.988Z,1021.36
2018-02-18T07:34:31.961Z,1021.39
2018-02-18T07:35:31.978Z,1021.38
2018-02-18T07:36:32.426Z,1021.44
2018-02-18T07:37:31.953Z,1021.44
2018-02-18T07:38:32.102Z,1021.42
2018-02-18T07:39:52.963Z,1021.41
2018-02-18T07:40:31.955Z,1021.44
2018-02-18T07:41:31.945Z,1021.43
2018-02-18T07:42:31.943Z,1021.44
2018-02-18T07:43:31.925Z,1021.43
2018-02-18T07:44:31.923Z,1021.51
2018-02-18T07:45:52.940Z,1021.50
2018-02-18T07:46:31.941Z,1021.45
2018-02-18T07:47:31.956Z,1021.45
2018-02-18T07:48:31.929Z,1021.49
2018-02-18T07:49:31.936Z,1021.52
2018-02-18T07:50:32.007Z,1021.47
2018-02-18T07:51:52.927Z,1021.55
2018-02-18T07:52:31.913Z,1021.57
2018-02-18T07:53:31.919Z,1021.58
2018-02-18T07:54:31.911Z,1021.58
2018-02-18T07:55:31.913Z,1021.54
2018-02-18T07:56:31.899Z,1021.51
2018-02-18T07:57:53.048Z,1021.54
2018-02-18T07:58:31.884Z,1021.52
2018-02-18T07:59:31.917Z,1021.52
2018-02-18T08:00:32.130Z,1021.53
2018-02-18T08:01:32.014Z,1021.50
2018-02-18T08:02:31.877Z,1021.50
2018-02-18T08:03:52.891Z,1021.50
2018-02-18T08:04:32.708Z,1021.49
2018-02-18T08:05:31.882Z,1021.53
2018-02-18T08:06:32.104Z,1021.55
2018-02-18T08:07:31.933Z,1021.52
2018-02-18T08:08:31.886Z,1021.50
2018-02-18T08:09:52.900Z,1021.51
2018-02-18T08:10:31.866Z,1021.57
2018-02-18T08:11:31.921Z,1021.56
2018-02-18T08:12:32.159Z,1021.57
2018-02-18T08:13:31.868Z,1021.63
2018-02-18T08:14:32.316Z,1021.64
2018-02-18T08:15:52.877Z,1021.70
2018-02-18T08:16:31.865Z,1021.68
2018-02-18T08:17:31.886Z,1021.68
2018-02-18T08:18:32.712Z,1021.80
2018-02-18T08:19:31.872Z,1021.72
2018-02-18T08:20:32.207Z,1021.71
2018-02-18T08:21:52.976Z,1021.77
2018-02-18T08:22:32.140Z,1021.79
2018-02-18T08:23:31.866Z,1021.77
2018-02-18T08:24:31.882Z,1021.76
2018-02-18T08:25:31.876Z,1021.80
2018-02-18T08:26:31.879Z,1021.82
2018-02-18T08:27:52.887Z,1021.82
2018-02-18T08:28:32.118Z,1021.91
2018-02-18T08:29:31.870Z,1021.97
2018-02-18T08:30:31.888Z,1022.08
2018-02-18T08:31:31.888Z,1022.19
2018-02-18T08:32:31.894Z,1022.23
2018-02-18T08:33:53.317Z,1022.40
2018-02-18T08:34:31.925Z,1022.62
2018-02-18T08:35:32.292Z,1022.95
2018-02-18T08:36:31.934Z,1023.20
2018-02-18T08:37:31.901Z,1023.21
2018-02-18T08:38:31.888Z,1022.91
2018-02-18T08:39:53.923Z,1022.64
2018-02-18T08:40:31.895Z,1022.52
2018-02-18T08:41:32.164Z,1022.47
2018-02-18T08:42:33.301Z,1022.47
2018-02-18T08:43:32.710Z,1022.42
2018-02-18T08:44:32.708Z,1022.45
2018-02-18T08:45:52.910Z,1022.37
2018-02-18T08:46:32.724Z,1022.32
2018-02-18T08:47:31.916Z,1022.35
2018-02-18T08:48:33.045Z,1022.30
2018-02-18T08:49:31.919Z,1022.27
2018-02-18T08:50:32.230Z,1022.22
2018-02-18T08:51:52.946Z,1022.23
2018-02-18T08:52:32.244Z,1022.21
2018-02-18T08:53:31.961Z,1022.21
2018-02-18T08:54:31.944Z,1022.18
2018-02-18T08:55:31.934Z,1022.17
2018-02-18T08:56:32.749Z,1022.17
2018-02-18T08:57:52.972Z,1022.14
2018-02-18T08:58:33.142Z,1022.14
2018-02-18T08:59:31.959Z,1022.12
2018-02-18T09:00:33.131Z,1022.14
2018-02-18T09:01:31.983Z,1022.05
2018-02-18T09:02:32.669Z,1022.07
2018-02-18T09:03:52.970Z,1022.07
2018-02-18T09:04:31.964Z,1022.12
2018-02-18T09:05:33.366Z,1022.10
2018-02-18T09:06:31.991Z,1022.14
2018-02-18T09:07:32.327Z,1022.12
2018-02-18T09:08:31.986Z,1022.12
2018-02-18T09:09:52.999Z,1022.11
2018-02-18T09:10:31.998Z,1022.14
2018-02-18T09:11:34.125Z,1022.13
2018-02-18T09:12:32.264Z,1022.17
2018-02-18T09:13:33.219Z,1022.25
2018-02-18T09:14:32.014Z,1022.25
2018-02-18T09:15:53.157Z,1022.28
2018-02-18T09:16:33.039Z,1022.34
2018-02-18T09:17:32.049Z,1022.29
2018-02-18T09:18:32.032Z,1022.32
2018-02-18T09:19:32.049Z,1022.34
2018-02-18T09:20:32.239Z,1022.41
2018-02-18T09:21:53.166Z,1022.40
2018-02-18T09:22:32.063Z,1022.41
2018-02-18T09:23:32.066Z,1022.41
2018-02-18T09:24:32.383Z,1022.40
2018-02-18T09:25:32.059Z,1022.41
2018-02-18T09:26:32.130Z,1022.47
2018-02-18T09:27:53.210Z,1022.46
2018-02-18T09:28:32.076Z,1022.47
2018-02-18T09:29:32.112Z,1022.56
2018-02-18T09:30:32.768Z,1022.56
2018-02-18T09:31:32.107Z,1022.62
2018-02-18T09:32:32.145Z,1022.60
2018-02-18T09:33:53.134Z,1022.63
2018-02-18T09:34:32.120Z,1022.62
2018-02-18T09:35:32.107Z,1022.60
2018-02-18T09:36:32.136Z,1022.59
2018-02-18T09:37:32.226Z,1022.62
2018-02-18T09:38:32.122Z,1022.61
2018-02-18T09:39:54.194Z,1022.68
2018-02-18T09:40:32.129Z,1022.73
2018-02-18T09:41:32.128Z,1022.80
2018-02-18T09:42:32.131Z,1022.82
2018-02-18T09:43:32.142Z,1022.83
2018-02-18T09:44:32.525Z,1022.81
2018-02-18T09:45:53.177Z,1022.78
2018-02-18T09:46:32.149Z,1022.77
2018-02-18T09:47:32.175Z,1022.75
2018-02-18T09:48:32.181Z,1022.75
2018-02-18T09:49:33.081Z,1022.75
2018-02-18T09:50:32.293Z,1022.78
2018-02-18T09:51:53.221Z,1022.85
2018-02-18T09:52:32.222Z,1022.82
2018-02-18T09:53:32.226Z,1022.80
2018-02-18T09:54:32.262Z,1022.76
2018-02-18T09:55:32.240Z,1022.79
2018-02-18T09:56:32.225Z,1022.78
2018-02-18T09:57:53.270Z,1022.85
2018-02-18T09:58:32.596Z,1022.80
2018-02-18T09:59:33.753Z,1022.78
2018-02-18T10:00:32.245Z,1022.75
2018-02-18T10:01:32.240Z,1022.73
2018-02-18T10:02:32.257Z,1022.72
2018-02-18T10:03:53.273Z,1022.66
2018-02-18T10:04:32.325Z,1022.59
2018-02-18T10:05:32.276Z,1022.43
2018-02-18T10:06:32.289Z,1022.56
2018-02-18T10:07:32.297Z,1022.48
2018-02-18T10:08:32.318Z,1022.27
2018-02-18T10:09:53.342Z,1022.40
2018-02-18T10:10:32.825Z,1022.25
2018-02-18T10:11:32.451Z,1022.43
2018-02-18T10:12:33.009Z,1022.42
2018-02-18T10:13:32.331Z,1022.37
2018-02-18T10:14:32.357Z,1022.32
2018-02-18T10:15:53.352Z,1022.34
2018-02-18T10:16:33.470Z,1022.35
2018-02-18T10:17:32.357Z,1022.35
2018-02-18T10:18:32.366Z,1022.32
2018-02-18T10:19:33.186Z,1022.33
2018-02-18T10:20:32.398Z,1022.36
2018-02-18T10:21:53.482Z,1022.35
2018-02-18T10:22:32.485Z,1022.45
2018-02-18T10:23:32.392Z,1022.45
2018-02-18T10:24:32.409Z,1022.44
2018-02-18T10:25:32.402Z,1022.41
2018-02-18T10:26:32.418Z,1022.47
2018-02-18T10:27:54.033Z,1022.43
2018-02-18T10:28:32.462Z,1022.38
2018-02-18T10:29:32.442Z,1022.33
2018-02-18T10:30:32.447Z,1022.38
2018-02-18T10:31:32.453Z,1022.45
2018-02-18T10:32:32.455Z,1022.52
2018-02-18T10:33:53.484Z,1022.46
2018-02-18T10:34:34.091Z,1022.49
2018-02-18T10:35:32.484Z,1022.57
2018-02-18T10:36:32.500Z,1022.64
2018-02-18T10:37:32.528Z,1022.65
2018-02-18T10:38:32.508Z,1022.74
2018-02-18T10:39:53.537Z,1022.74
2018-02-18T10:40:32.582Z,1022.86
2018-02-18T10:41:32.953Z,1022.90
2018-02-18T10:42:32.543Z,1022.90
2018-02-18T10:43:32.567Z,1022.97
2018-02-18T10:44:33.037Z,1023.04
2018-02-18T10:45:53.595Z,1023.01
2018-02-18T10:46:32.560Z,1023.03
2018-02-18T10:47:32.564Z,1023.03
2018-02-18T10:48:32.579Z,1023.04
2018-02-18T10:49:32.919Z,1023.09
2018-02-18T10:50:32.616Z,1023.10
2018-02-18T10:51:53.633Z,1023.10
2018-02-18T10:52:32.887Z,1023.05
2018-02-18T10:53:32.634Z,1023.09
2018-02-18T10:54:33.887Z,1023.12
2018-02-18T10:55:32.634Z,1023.18
2018-02-18T10:56:32.640Z,1023.15
2018-02-18T10:57:53.671Z,1023.20
2018-02-18T10:58:32.667Z,1023.18
2018-02-18T10:59:32.680Z,1023.22
2018-02-18T11:00:32.700Z,1023.22
2018-02-18T11:01:32.710Z,1023.18
2018-02-18T11:02:32.724Z,1023.15
2018-02-18T11:03:53.762Z,1023.14
2018-02-18T11:04:32.743Z,1023.06
2018-02-18T11:05:32.716Z,1023.04
2018-02-18T11:06:32.754Z,1023.03
2018-02-18T11:07:32.781Z,1022.98
2018-02-18T11:08:32.778Z,1023.06
2018-02-18T11:09:53.801Z,1022.99
2018-02-18T11:10:32.829Z,1022.88
2018-02-18T11:11:33.544Z,1023.04
2018-02-18T11:12:32.792Z,1023.10
2018-02-18T11:13:32.802Z,1023.04
2018-02-18T11:14:32.806Z,1023.00
2018-02-18T11:15:53.834Z,1023.03
2018-02-18T11:16:32.831Z,1023.06
2018-02-18T11:17:32.831Z,1022.98
2018-02-18T11:18:32.849Z,1023.03
2018-02-18T11:19:32.882Z,1023.02
2018-02-18T11:20:32.897Z,1023.14
2018-02-18T11:21:53.890Z,1023.13
2018-02-18T11:22:32.995Z,1023.13
2018-02-18T11:23:32.900Z,1023.20
2018-02-18T11:24:32.896Z,1023.18
2018-02-18T11:25:32.943Z,1023.21
2018-02-18T11:26:32.943Z,1023.13
2018-02-18T11:27:53.970Z,1023.20
2018-02-18T11:28:32.982Z,1023.09
2018-02-18T11:29:32.982Z,1023.06
2018-02-18T11:30:32.977Z,1023.07
2018-02-18T11:31:32.995Z,1023.01
2018-02-18T11:32:33.012Z,1022.99
2018-02-18T11:33:54.029Z,1022.90
2018-02-18T11:34:33.069Z,1022.83
2018-02-18T11:35:33.818Z,1022.69
2018-02-18T11:36:33.057Z,1022.84
2018-02-18T11:37:33.068Z,1022.73
2018-02-18T11:38:33.066Z,1022.57
2018-02-18T11:39:54.096Z,1022.77
2018-02-18T11:40:33.087Z,1022.75
2018-02-18T11:41:33.111Z,1022.74
2018-02-18T11:42:33.118Z,1022.79
2018-02-18T11:43:33.128Z,1022.83
2018-02-18T11:44:33.138Z,1022.74
2018-02-18T11:45:54.133Z,1022.73
2018-02-18T11:46:33.136Z,1022.67
2018-02-18T11:47:33.149Z,1022.69
2018-02-18T11:48:33.157Z,1022.62
2018-02-18T11:49:34.648Z,1022.63
2018-02-18T11:50:33.239Z,1022.59
2018-02-18T11:51:54.220Z,1022.51
2018-02-18T11:52:33.207Z,1022.46
2018-02-18T11:53:33.200Z,1022.36
2018-02-18T11:54:33.219Z,1022.44
2018-02-18T11:55:33.238Z,1022.69
2018-02-18T11:56:33.236Z,1022.64
2018-02-18T11:57:54.251Z,1022.67
2018-02-18T11:58:33.250Z,1022.66
2018-02-18T11:59:33.299Z,1022.64
2018-02-18T12:00:33.286Z,1022.67
2018-02-18T12:01:33.277Z,1022.66
2018-02-18T12:02:33.291Z,1022.70
2018-02-18T12:03:54.316Z,1022.70
2018-02-18T12:04:33.323Z,1022.69
2018-02-18T12:05:33.318Z,1022.69